createdAt,value
2022-09-26T00:01:43.850Z,6.60
2022-09-26T00:04:22.975Z,6.60
2022-09-26T00:06:54.249Z,7.27
2022-09-26T00:09:24.565Z,6.47
2022-09-26T00:11:53.473Z,6.40
2022-09-26T00:14:25.345Z,6.60
2022-09-26T00:16:54.037Z,6.40
2022-09-26T00:19:24.595Z,5.80
2022-09-26T00:21:53.195Z,6.97
2022-09-26T00:24:21.577Z,7.03
2022-09-26T00:26:50.050Z,6.57
2022-09-26T00:29:18.424Z,6.80
2022-09-26T00:31:49.059Z,5.43
2022-09-26T00:34:20.395Z,7.70
2022-09-26T00:36:52.684Z,6.40
2022-09-26T00:39:21.210Z,5.90
2022-09-26T00:41:49.700Z,6.50
2022-09-26T00:44:50.483Z,6.43
2022-09-26T00:47:36.791Z,6.47
2022-09-26T00:50:13.336Z,5.73
2022-09-26T00:52:48.557Z,6.40
2022-09-26T00:55:21.485Z,7.00
2022-09-26T00:58:01.487Z,6.77
2022-09-26T01:00:31.129Z,6.20
2022-09-26T01:03:00.119Z,6.33
2022-09-26T01:05:28.884Z,7.10
2022-09-26T01:08:00.456Z,6.70
2022-09-26T01:10:30.277Z,6.03
2022-09-26T01:12:59.108Z,7.10
2022-09-26T01:15:28.262Z,6.70
2022-09-26T01:17:57.282Z,7.93
2022-09-26T01:20:41.918Z,6.70
2022-09-26T01:23:53.965Z,6.07
2022-09-26T01:27:00.240Z,5.80
2022-09-26T01:30:07.230Z,6.33
2022-09-26T01:33:40.075Z,6.57
2022-09-26T01:36:34.041Z,5.93
2022-09-26T01:39:19.233Z,6.50
2022-09-26T01:41:59.832Z,6.73
2022-09-26T01:44:34.189Z,6.53
2022-09-26T01:47:14.553Z,6.47
2022-09-26T01:49:55.749Z,5.20
2022-09-26T01:52:33.548Z,6.63
2022-09-26T01:55:08.691Z,5.47
2022-09-26T01:57:59.138Z,5.53
2022-09-26T02:00:28.765Z,6.20
2022-09-26T02:03:01.372Z,5.73
2022-09-26T02:05:34.726Z,6.33
2022-09-26T02:08:10.485Z,6.30
2022-09-26T02:10:46.141Z,6.03
2022-09-26T02:13:18.910Z,7.00
2022-09-26T02:15:52.653Z,7.90
2022-09-26T02:18:30.776Z,7.27
2022-09-26T02:21:04.276Z,7.07
2022-09-26T02:23:32.809Z,7.77
2022-09-26T02:26:01.297Z,7.13
2022-09-26T02:28:29.754Z,7.80
2022-09-26T02:31:01.366Z,7.43
2022-09-26T02:33:32.751Z,6.67
2022-09-26T02:36:02.926Z,6.63
2022-09-26T02:38:34.680Z,7.70
2022-09-26T02:41:33.369Z,8.80
2022-09-26T02:44:15.942Z,8.33
2022-09-26T02:47:28.502Z,9.37
2022-09-26T02:50:19.243Z,7.60
2022-09-26T02:53:02.639Z,7.40
2022-09-26T02:55:47.980Z,7.17
2022-09-26T02:58:26.897Z,7.60
2022-09-26T03:01:02.841Z,7.03
2022-09-26T03:03:36.551Z,7.20
2022-09-26T03:06:11.327Z,7.50
2022-09-26T03:08:44.112Z,8.00
2022-09-26T03:11:18.042Z,7.67
2022-09-26T03:13:47.565Z,7.60
2022-09-26T03:16:17.778Z,7.93
2022-09-26T03:18:56.449Z,7.30
2022-09-26T03:21:27.203Z,6.53
2022-09-26T03:23:58.139Z,6.93
2022-09-26T03:26:29.597Z,8.03
2022-09-26T03:29:02.397Z,7.50
2022-09-26T03:31:33.059Z,7.73
2022-09-26T03:34:03.641Z,7.50
2022-09-26T03:36:33.621Z,6.90
2022-09-26T03:39:04.182Z,7.30
2022-09-26T03:41:46.821Z,7.77
2022-09-26T03:44:28.626Z,7.50
2022-09-26T03:47:05.898Z,7.13
2022-09-26T03:49:40.730Z,6.90
2022-09-26T03:52:13.805Z,7.70
2022-09-26T03:54:44.241Z,7.30
2022-09-26T03:57:13.895Z,7.37
2022-09-26T03:59:56.548Z,7.57
2022-09-26T04:02:28.917Z,8.00
2022-09-26T04:05:12.734Z,7.57
2022-09-26T04:07:44.545Z,7.20
2022-09-26T04:10:13.486Z,7.63
2022-09-26T04:12:42.354Z,7.50
2022-09-26T04:15:12.070Z,7.77
2022-09-26T04:17:40.933Z,8.00
2022-09-26T04:20:10.149Z,7.50
2022-09-26T04:22:39.384Z,7.00
2022-09-26T04:25:10.694Z,7.73
2022-09-26T04:27:39.731Z,9.20
2022-09-26T04:30:09.913Z,7.93
2022-09-26T04:32:42.594Z,8.20
2022-09-26T04:35:20.847Z,8.60
2022-09-26T04:37:51.442Z,7.83
2022-09-26T04:40:22.650Z,9.00
2022-09-26T04:43:03.929Z,8.13
2022-09-26T04:45:32.503Z,8.30
2022-09-26T04:48:00.959Z,9.10
2022-09-26T04:50:30.369Z,9.60
2022-09-26T04:53:09.997Z,10.27
2022-09-26T04:55:51.025Z,9.93
2022-09-26T04:58:19.481Z,10.23
2022-09-26T05:00:49.938Z,10.70
2022-09-26T05:03:29.525Z,10.23
2022-09-26T05:05:58.196Z,10.23
2022-09-26T05:08:27.507Z,9.60
2022-09-26T05:10:58.502Z,10.83
2022-09-26T05:13:28.221Z,11.20
2022-09-26T05:15:57.195Z,12.60
2022-09-26T05:18:28.074Z,10.93
2022-09-26T05:20:58.315Z,10.47
2022-09-26T05:23:45.608Z,10.23
2022-09-26T05:26:22.228Z,10.50
2022-09-26T05:28:54.247Z,10.33
2022-09-26T05:31:29.097Z,13.10
2022-09-26T05:33:57.717Z,12.33
2022-09-26T05:36:26.879Z,10.30
2022-09-26T05:38:55.863Z,10.07
2022-09-26T05:41:28.455Z,10.90
2022-09-26T05:43:57.127Z,9.67
2022-09-26T05:46:28.406Z,10.27
2022-09-26T05:49:00.232Z,9.53
2022-09-26T05:51:29.449Z,10.47
2022-09-26T05:53:58.126Z,9.07
2022-09-26T05:56:29.876Z,10.90
2022-09-26T05:59:30.344Z,10.80
2022-09-26T06:02:06.762Z,9.50
2022-09-26T06:05:05.360Z,10.07
2022-09-26T06:08:03.032Z,9.30
2022-09-26T06:10:38.585Z,10.40
2022-09-26T06:13:09.313Z,9.23
2022-09-26T06:15:44.524Z,10.17
2022-09-26T06:18:12.903Z,9.50
2022-09-26T06:20:41.321Z,9.37
2022-09-26T06:23:13.993Z,10.10
2022-09-26T06:25:45.576Z,10.57
2022-09-26T06:28:15.868Z,10.17
2022-09-26T06:30:44.626Z,9.77
2022-09-26T06:33:17.025Z,8.70
2022-09-26T06:36:03.893Z,10.07
2022-09-26T06:38:37.489Z,10.10
2022-09-26T06:41:09.780Z,10.60
2022-09-26T06:43:39.797Z,10.30
2022-09-26T06:46:11.050Z,11.17
2022-09-26T06:48:50.944Z,11.70
2022-09-26T06:51:29.567Z,10.63
2022-09-26T06:54:00.473Z,12.30
2022-09-26T06:56:29.032Z,11.20
2022-09-26T06:58:59.128Z,11.40
2022-09-26T07:01:34.038Z,11.27
2022-09-26T07:04:19.667Z,11.20
2022-09-26T07:06:59.870Z,11.90
2022-09-26T07:09:28.925Z,11.53
2022-09-26T07:12:17.969Z,12.27
2022-09-26T07:14:53.412Z,10.17
2022-09-26T07:17:30.937Z,11.87
2022-09-26T07:20:32.164Z,9.70
2022-09-26T07:23:28.888Z,9.80
2022-09-26T07:25:57.337Z,8.80
2022-09-26T07:28:25.866Z,8.80
2022-09-26T07:30:58.896Z,9.10
2022-09-26T07:33:47.598Z,10.37
2022-09-26T07:36:18.481Z,9.50
2022-09-26T07:38:49.564Z,9.17
2022-09-26T07:41:20.100Z,8.93
2022-09-26T07:46:56.678Z,9.30
2022-09-26T07:49:42.823Z,9.53
2022-09-26T07:52:17.485Z,10.03
2022-09-26T07:54:56.662Z,8.30
2022-09-26T07:58:00.420Z,8.23
2022-09-26T08:00:38.109Z,7.00
2022-09-26T08:03:18.527Z,7.80
2022-09-26T08:05:47.065Z,7.23
2022-09-26T08:08:16.557Z,7.30
2022-09-26T08:11:04.004Z,7.27
2022-09-26T08:14:04.937Z,7.33
2022-09-26T08:16:56.952Z,6.20
2022-09-26T08:19:27.072Z,5.23
2022-09-26T08:21:55.590Z,5.70
2022-09-26T08:24:24.607Z,6.47
2022-09-26T08:27:22.734Z,5.60
2022-09-26T08:29:51.893Z,6.43
2022-09-26T08:32:21.803Z,6.27
2022-09-26T08:34:53.717Z,6.90
2022-09-26T08:37:51.306Z,5.60
2022-09-26T08:40:53.192Z,5.40
2022-09-26T08:43:57.810Z,5.10
2022-09-26T08:46:56.444Z,6.03
2022-09-26T08:49:50.629Z,6.13
2022-09-26T08:52:31.869Z,5.83
2022-09-26T08:55:05.904Z,5.00
2022-09-26T08:57:40.051Z,5.17
2022-09-26T09:00:20.081Z,4.77
2022-09-26T09:03:16.191Z,5.50
2022-09-26T09:05:49.787Z,5.00
2022-09-26T09:08:24.372Z,4.87
2022-09-26T09:11:35.513Z,6.60
2022-09-26T09:14:23.686Z,5.50
2022-09-26T09:17:25.884Z,5.57
2022-09-26T09:20:17.279Z,4.77
2022-09-26T09:23:46.774Z,4.27
2022-09-26T09:29:49.308Z,4.00
2022-09-26T09:32:49.511Z,4.03
2022-09-26T09:35:43.851Z,4.80
2022-09-26T09:38:29.482Z,4.80
2022-09-26T09:41:09.052Z,3.63
2022-09-26T09:43:42.271Z,3.63
2022-09-26T09:46:18.143Z,3.50
2022-09-26T09:48:49.266Z,3.40
2022-09-26T09:51:38.354Z,3.57
2022-09-26T09:54:38.103Z,3.03
2022-09-26T09:57:35.063Z,3.20
2022-09-26T10:00:13.419Z,3.03
2022-09-26T10:03:02.015Z,2.83
2022-09-26T10:05:42.662Z,2.63
2022-09-26T10:08:16.934Z,3.00
2022-09-26T10:11:23.934Z,3.63
2022-09-26T10:14:03.464Z,3.07
2022-09-26T10:17:19.034Z,2.60
2022-09-26T10:20:37.762Z,3.07
2022-09-26T10:23:19.401Z,2.40
2022-09-26T10:25:50.154Z,2.33
2022-09-26T10:28:37.637Z,2.40
2022-09-26T10:31:10.815Z,2.30
2022-09-26T10:34:08.941Z,2.33
2022-09-26T10:36:40.239Z,2.57
2022-09-26T10:39:37.875Z,2.60
2022-09-26T10:42:20.069Z,2.20
2022-09-26T10:44:51.197Z,1.70
2022-09-26T10:47:29.863Z,1.93
2022-09-26T10:50:07.399Z,1.93
2022-09-26T10:52:49.697Z,2.33
2022-09-26T10:55:25.614Z,2.77
2022-09-26T10:57:59.747Z,2.20
2022-09-26T11:00:40.204Z,2.40
2022-09-26T11:03:23.083Z,2.57
2022-09-26T11:06:25.294Z,2.63
2022-09-26T11:09:02.499Z,2.33
2022-09-26T11:12:26.312Z,2.60
2022-09-26T11:15:00.445Z,2.80
2022-09-26T11:17:45.157Z,2.77
2022-09-26T11:20:27.287Z,2.40
2022-09-26T11:23:08.208Z,2.40
2022-09-26T11:25:57.707Z,2.00
2022-09-26T11:28:32.555Z,2.63
2022-09-26T11:31:26.687Z,3.27
2022-09-26T11:34:18.408Z,3.20
2022-09-26T11:37:18.675Z,2.50
2022-09-26T11:40:09.517Z,2.73
2022-09-26T11:42:56.964Z,3.77
2022-09-26T11:45:39.357Z,3.50
2022-09-26T11:49:38.493Z,3.40
2022-09-26T11:52:49.322Z,2.83
2022-09-26T11:55:31.098Z,3.07
2022-09-26T11:58:14.836Z,3.53
2022-09-26T12:00:58.016Z,2.80
2022-09-26T12:03:53.375Z,3.10
2022-09-26T12:06:33.442Z,2.97
2022-09-26T12:09:22.085Z,3.27
2022-09-26T12:12:02.235Z,2.80
2022-09-26T12:14:49.181Z,2.50
2022-09-26T12:17:35.163Z,3.10
2022-09-26T12:20:24.104Z,2.70
2022-09-26T12:23:01.765Z,2.83
2022-09-26T12:25:55.787Z,2.93
2022-09-26T12:28:48.064Z,1.90
2022-09-26T12:31:25.980Z,2.53
2022-09-26T12:34:16.818Z,2.80
2022-09-26T12:37:01.888Z,2.80
2022-09-26T12:40:04.952Z,3.10
2022-09-26T12:42:54.700Z,2.70
2022-09-26T12:45:54.442Z,3.73
2022-09-26T12:48:36.615Z,2.93
2022-09-26T12:51:19.984Z,2.47
2022-09-26T12:54:17.288Z,1.97
2022-09-26T12:56:55.576Z,2.20
2022-09-26T12:59:58.214Z,2.87
2022-09-26T13:02:50.898Z,2.40
2022-09-26T13:05:56.466Z,2.70
2022-09-26T13:08:31.997Z,2.63
2022-09-26T13:11:15.610Z,2.17
2022-09-26T13:14:18.483Z,2.27
2022-09-26T13:17:06.474Z,2.30
2022-09-26T13:19:39.758Z,2.53
2022-09-26T13:22:22.928Z,2.60
2022-09-26T13:24:58.628Z,2.60
2022-09-26T13:27:32.767Z,2.50
2022-09-26T13:30:08.216Z,3.50
2022-09-26T13:32:51.447Z,2.20
2022-09-26T13:35:24.093Z,2.13
2022-09-26T13:38:15.430Z,2.13
2022-09-26T13:40:53.926Z,2.50
2022-09-26T13:43:47.535Z,2.20
2022-09-26T13:46:29.580Z,1.87
2022-09-26T13:49:08.969Z,1.97
2022-09-26T13:51:49.394Z,1.70
2022-09-26T13:54:27.043Z,2.00
2022-09-26T13:56:56.101Z,2.20
2022-09-26T13:59:51.668Z,2.77
2022-09-26T14:02:28.873Z,2.10
2022-09-26T14:05:49.990Z,2.13
2022-09-26T14:09:19.521Z,1.70
2022-09-26T14:11:51.375Z,2.37
2022-09-26T14:14:27.145Z,2.10
2022-09-26T14:16:57.483Z,1.70
2022-09-26T14:19:36.253Z,2.00
2022-09-26T14:22:32.969Z,2.40
2022-09-26T14:25:02.273Z,2.30
2022-09-26T14:27:44.775Z,1.63
2022-09-26T14:30:29.281Z,1.53
2022-09-26T14:33:03.570Z,1.07
2022-09-26T14:35:34.936Z,1.53
2022-09-26T14:38:10.410Z,1.70
2022-09-26T14:40:39.203Z,1.17
2022-09-26T14:43:16.145Z,1.57
2022-09-26T14:45:51.578Z,1.40
2022-09-26T14:48:33.330Z,2.10
2022-09-26T14:51:05.847Z,1.60
2022-09-26T14:53:42.008Z,2.30
2022-09-26T14:56:16.053Z,1.70
2022-09-26T14:58:51.586Z,1.93
2022-09-26T15:01:30.663Z,1.70
2022-09-26T15:04:04.046Z,1.90
2022-09-26T15:06:40.056Z,1.80
2022-09-26T15:09:19.889Z,1.50
2022-09-26T15:11:55.251Z,1.50
2022-09-26T15:14:43.297Z,1.83
2022-09-26T15:17:19.261Z,2.23
2022-09-26T15:19:52.433Z,2.50
2022-09-26T15:22:25.444Z,1.60
2022-09-26T15:25:01.052Z,1.80
2022-09-26T15:27:31.766Z,1.77
2022-09-26T15:30:08.525Z,1.50
2022-09-26T15:32:37.248Z,1.20
2022-09-26T15:35:06.636Z,2.00
2022-09-26T15:37:37.368Z,2.37
2022-09-26T15:40:18.611Z,1.60
2022-09-26T15:42:59.224Z,1.83
2022-09-26T15:45:33.323Z,2.73
2022-09-26T15:48:05.377Z,2.80
2022-09-26T15:50:42.914Z,1.77
2022-09-26T15:53:26.385Z,1.50
2022-09-26T15:56:00.882Z,1.47
2022-09-26T15:58:37.040Z,1.20
2022-09-26T16:01:06.563Z,1.40
2022-09-26T16:03:45.878Z,1.57
2022-09-26T16:06:31.258Z,2.90
2022-09-26T16:09:06.557Z,1.87
2022-09-26T16:11:47.613Z,1.57
2022-09-26T16:14:26.901Z,2.00
2022-09-26T16:17:01.950Z,1.10
2022-09-26T16:19:34.960Z,1.60
2022-09-26T16:22:40.601Z,1.20
2022-09-26T16:25:29.546Z,1.57
2022-09-26T16:28:22.868Z,1.43
2022-09-26T16:31:29.649Z,1.47
2022-09-26T16:34:01.091Z,1.20
2022-09-26T16:36:33.101Z,1.67
2022-09-26T16:39:03.653Z,1.50
2022-09-26T16:42:00.216Z,1.10
2022-09-26T16:44:35.841Z,1.10
2022-09-26T16:47:07.804Z,1.70
2022-09-26T16:49:46.855Z,2.23
2022-09-26T16:52:30.368Z,1.47
2022-09-26T16:55:01.323Z,1.90
2022-09-26T16:57:33.485Z,1.20
2022-09-26T17:00:30.191Z,1.47
2022-09-26T17:02:58.877Z,1.50
2022-09-26T17:05:27.445Z,1.43
2022-09-26T17:07:56.146Z,1.60
2022-09-26T17:10:27.036Z,1.10
2022-09-26T17:12:56.365Z,1.70
2022-09-26T17:15:30.026Z,1.90
2022-09-26T17:18:01.322Z,1.30
2022-09-26T17:20:30.640Z,1.60
2022-09-26T17:23:11.936Z,1.60
2022-09-26T17:25:52.938Z,1.50
2022-09-26T17:28:31.216Z,1.77
2022-09-26T17:31:06.312Z,1.93
2022-09-26T17:33:40.624Z,1.40
2022-09-26T17:36:11.999Z,1.80
2022-09-26T17:38:41.276Z,1.67
2022-09-26T17:41:12.585Z,1.40
2022-09-26T17:43:41.344Z,1.77
2022-09-26T17:46:15.784Z,1.63
2022-09-26T17:48:45.982Z,1.80
2022-09-26T17:51:15.019Z,2.13
2022-09-26T17:53:50.790Z,1.70
2022-09-26T17:56:20.609Z,2.60
2022-09-26T17:58:51.920Z,1.80
2022-09-26T18:01:27.688Z,1.70
2022-09-26T18:04:02.533Z,1.53
2022-09-26T18:06:34.021Z,1.37
2022-09-26T18:09:10.026Z,1.83
2022-09-26T18:11:41.659Z,2.30
2022-09-26T18:14:17.187Z,2.60
2022-09-26T18:16:47.288Z,2.90
2022-09-26T18:19:15.899Z,2.70
2022-09-26T18:21:44.472Z,3.13
2022-09-26T18:24:19.827Z,2.80
2022-09-26T18:26:50.910Z,3.30
2022-09-26T18:29:27.436Z,3.50
2022-09-26T18:31:59.103Z,3.70
2022-09-26T18:34:27.868Z,5.30
2022-09-26T18:37:00.138Z,4.90
2022-09-26T18:39:28.805Z,3.50
2022-09-26T18:42:02.300Z,3.77
2022-09-26T18:44:35.114Z,4.13
2022-09-26T18:47:12.521Z,3.43
2022-09-26T18:49:41.294Z,2.90
2022-09-26T18:52:16.424Z,3.07
2022-09-26T18:54:46.238Z,3.10
2022-09-26T18:57:32.695Z,3.00
2022-09-26T19:00:01.362Z,2.60
2022-09-26T19:02:38.613Z,2.23
2022-09-26T19:05:11.858Z,2.13
2022-09-26T19:07:40.552Z,2.50
2022-09-26T19:10:16.381Z,2.10
2022-09-26T19:12:45.241Z,2.37
2022-09-26T19:15:17.714Z,2.37
2022-09-26T19:17:49.995Z,3.00
2022-09-26T19:20:18.657Z,2.20
2022-09-26T19:22:47.287Z,2.57
2022-09-26T19:25:17.742Z,2.50
2022-09-26T19:27:49.987Z,3.30
2022-09-26T19:30:21.572Z,2.63
2022-09-26T19:32:54.156Z,2.30
2022-09-26T19:35:27.266Z,2.00
2022-09-26T19:37:56.188Z,1.90
2022-09-26T19:40:26.723Z,2.30
2022-09-26T19:42:57.209Z,1.90
2022-09-26T19:45:27.552Z,2.13
2022-09-26T19:47:58.451Z,1.90
2022-09-26T19:50:27.706Z,1.90
2022-09-26T19:52:58.658Z,2.10
2022-09-26T19:55:29.934Z,2.30
2022-09-26T19:58:04.413Z,1.90
2022-09-26T20:00:41.208Z,1.87
2022-09-26T20:03:17.967Z,2.07
2022-09-26T20:05:47.395Z,1.97
2022-09-26T20:08:19.464Z,1.73
2022-09-26T20:10:48.304Z,1.83
2022-09-26T20:13:17.407Z,2.00
2022-09-26T20:15:46.745Z,1.67
2022-09-26T20:18:20.730Z,1.90
2022-09-26T20:20:55.258Z,1.97
2022-09-26T20:23:26.761Z,1.67
2022-09-26T20:25:56.515Z,1.70
2022-09-26T20:28:25.295Z,1.80
2022-09-26T20:30:54.138Z,1.53
2022-09-26T20:33:26.320Z,1.63
2022-09-26T20:36:02.980Z,2.03
2022-09-26T20:38:38.089Z,2.00
2022-09-26T20:41:13.406Z,1.67
2022-09-26T20:43:45.887Z,2.00
2022-09-26T20:46:15.036Z,3.30
2022-09-26T20:48:48.607Z,1.87
2022-09-26T20:51:21.802Z,2.23
2022-09-26T20:53:50.316Z,1.67
2022-09-26T20:56:21.959Z,2.00
2022-09-26T20:58:51.076Z,2.03
2022-09-26T21:01:21.795Z,2.20
2022-09-26T21:03:55.172Z,1.60
2022-09-26T21:06:27.549Z,1.50
2022-09-26T21:08:56.400Z,1.77
2022-09-26T21:11:25.160Z,2.07
2022-09-26T21:13:53.942Z,1.77
2022-09-26T21:16:23.489Z,1.80
2022-09-26T21:18:54.796Z,1.50
2022-09-26T21:21:26.199Z,1.50
2022-09-26T21:24:01.777Z,1.73
2022-09-26T21:26:31.272Z,2.00
2022-09-26T21:29:00.009Z,1.57
2022-09-26T21:31:32.003Z,1.80
2022-09-26T21:34:02.352Z,1.50
2022-09-26T21:36:36.415Z,1.73
2022-09-26T21:39:06.355Z,1.43
2022-09-26T21:41:35.185Z,1.70
2022-09-26T21:44:09.904Z,1.40
2022-09-26T21:46:38.475Z,1.57
2022-09-26T21:49:08.612Z,1.37
2022-09-26T21:51:37.821Z,1.57
2022-09-26T21:54:10.722Z,1.27
2022-09-26T21:56:49.975Z,1.23
2022-09-26T21:59:21.250Z,1.40
2022-09-26T22:01:49.868Z,1.50
2022-09-26T22:04:22.372Z,1.57
2022-09-26T22:06:50.917Z,1.37
2022-09-26T22:09:19.621Z,1.30
2022-09-26T22:11:48.302Z,1.23
2022-09-26T22:14:17.381Z,1.50
2022-09-26T22:16:45.995Z,1.10
2022-09-26T22:19:15.035Z,1.30
2022-09-26T22:21:45.031Z,1.33
2022-09-26T22:24:13.978Z,1.30
2022-09-26T22:26:42.532Z,1.53
2022-09-26T22:29:11.087Z,1.50
2022-09-26T22:31:39.646Z,1.40
2022-09-26T22:34:08.360Z,1.43
2022-09-26T22:36:37.128Z,1.63
2022-09-26T22:39:07.061Z,1.13
2022-09-26T22:41:35.566Z,1.20
2022-09-26T22:44:04.327Z,1.30
2022-09-26T22:46:35.421Z,1.20
2022-09-26T22:49:04.098Z,1.40
2022-09-26T22:51:32.683Z,1.33
2022-09-26T22:54:01.368Z,1.60
2022-09-26T22:56:31.461Z,1.67
2022-09-26T22:59:00.004Z,1.00
2022-09-26T23:01:29.695Z,1.30
2022-09-26T23:03:59.398Z,1.30
2022-09-26T23:06:28.832Z,1.10
2022-09-26T23:08:57.459Z,1.00
2022-09-26T23:11:27.915Z,1.43
2022-09-26T23:13:57.846Z,1.13
2022-09-26T23:16:28.091Z,1.30
2022-09-26T23:18:57.356Z,1.30
2022-09-26T23:21:29.089Z,1.90
2022-09-26T23:23:58.832Z,1.67
2022-09-26T23:26:29.541Z,1.40
2022-09-26T23:29:00.876Z,1.30
2022-09-26T23:31:30.382Z,1.37
2022-09-26T23:33:59.288Z,1.70
2022-09-26T23:36:28.097Z,1.50
2022-09-26T23:38:59.795Z,1.17
2022-09-26T23:41:28.464Z,1.27
2022-09-26T23:43:58.473Z,1.10
2022-09-26T23:46:27.112Z,1.10
2022-09-26T23:48:55.922Z,1.20
2022-09-26T23:51:24.522Z,1.03
2022-09-26T23:53:53.034Z,1.30
2022-09-26T23:56:21.591Z,0.97
2022-09-26T23:58:50.790Z,1.43
